Worth, Illinois
Current Conditions -  °F | °C
As of 12:53 AM on Sunday 26 Oct 2014 (Local Time) from KMDW Reporting Station
Clear Clear  
Wind Chill: 53°   Ceiling: Unl
Heat Index: 53°   Visibility: 10mi
Dew Point: 30°   Wind: 6mph
Humidity: 41%   Direction: 290°WNW
Pressure: 29.98"   Gusts: NA
Location:  41.69°N, 87.8°W
Report Text: KMDW 260553Z 29005KT 10SM CLR 12/M01 A2998 RMK AO2 SLP148 T01171011 10189 20111 402390111 53004
Loading
Personal Weather Stations






























Interactive Weather Map
Tropical Storm Tracking
New forecast layout! Learn more

10-Day Weather Forecast

Advertisements
Track Severe Weather on mobile